Terminal Aerodrome Forecast
Issued by NWS

Home | Current Version | Previous Version | Graphics & Text | Print | Product List | Glossary Off
Versions: 1 2 3 4 5 6 7 8 9 10 11 12

000
FTUS45 KGGW 240520
TAFOLF
TAF
KOLF 240520Z 2406/2506 26011KT P6SM VCSH OVC070
     FM240800 27014G23KT P6SM VCSH OVC070 WS020/27045KT
     FM241000 28019G28KT P6SM SCT110
     FM242000 28011KT P6SM FEW200=

USA.gov is the U.S. government's official web portal to all federal, state and local government web resources and services.